sensor_id;sensor_type;location;lat;lon;timestamp;P1;durP1;ratioP1;P2;durP2;ratioP2
10333;SDS011;5212;47.892;16.406;2023-04-25T00:01:14;3.83;;;2.00;;
10333;SDS011;5212;47.892;16.406;2023-04-25T00:03:40;2.53;;;1.77;;
10333;SDS011;5212;47.892;16.406;2023-04-25T00:06:07;2.03;;;1.93;;
10333;SDS011;5212;47.892;16.406;2023-04-25T00:08:33;1.80;;;1.70;;
10333;SDS011;5212;47.892;16.406;2023-04-25T00:11:00;1.60;;;1.50;;
10333;SDS011;5212;47.892;16.406;2023-04-25T00:13:26;2.00;;;1.63;;
10333;SDS011;5212;47.892;16.406;2023-04-25T00:15:52;1.70;;;1.60;;
10333;SDS011;5212;47.892;16.406;2023-04-25T00:18:18;2.00;;;1.80;;
10333;SDS011;5212;47.892;16.406;2023-04-25T00:20:45;1.73;;;1.60;;
10333;SDS011;5212;47.892;16.406;2023-04-25T00:23:12;1.73;;;1.60;;
10333;SDS011;5212;47.892;16.406;2023-04-25T00:25:42;1.80;;;1.67;;
10333;SDS011;5212;47.892;16.406;2023-04-25T00:28:08;2.47;;;1.70;;
10333;SDS011;5212;47.892;16.406;2023-04-25T00:30:34;2.90;;;1.80;;
10333;SDS011;5212;47.892;16.406;2023-04-25T00:33:00;1.77;;;1.50;;
10333;SDS011;5212;47.892;16.406;2023-04-25T00:35:26;1.70;;;1.60;;
10333;SDS011;5212;47.892;16.406;2023-04-25T00:37:52;1.60;;;1.50;;
10333;SDS011;5212;47.892;16.406;2023-04-25T00:40:19;2.97;;;1.60;;
10333;SDS011;5212;47.892;16.406;2023-04-25T00:42:45;2.13;;;1.70;;
10333;SDS011;5212;47.892;16.406;2023-04-25T00:45:12;2.27;;;1.80;;
10333;SDS011;5212;47.892;16.406;2023-04-25T00:47:39;3.77;;;1.80;;
10333;SDS011;5212;47.892;16.406;2023-04-25T00:50:06;1.70;;;1.60;;
10333;SDS011;5212;47.892;16.406;2023-04-25T00:52:33;1.70;;;1.60;;
10333;SDS011;5212;47.892;16.406;2023-04-25T00:54:59;2.00;;;1.80;;
10333;SDS011;5212;47.892;16.406;2023-04-25T00:57:26;2.00;;;1.80;;
10333;SDS011;5212;47.892;16.406;2023-04-25T00:59:52;2.73;;;2.03;;
10333;SDS011;5212;47.892;16.406;2023-04-25T01:02:18;2.17;;;1.97;;
10333;SDS011;5212;47.892;16.406;2023-04-25T01:04:45;2.70;;;1.90;;
10333;SDS011;5212;47.892;16.406;2023-04-25T01:07:12;2.30;;;2.07;;
10333;SDS011;5212;47.892;16.406;2023-04-25T01:09:38;2.87;;;1.90;;
10333;SDS011;5212;47.892;16.406;2023-04-25T01:12:04;2.10;;;1.90;;
10333;SDS011;5212;47.892;16.406;2023-04-25T01:14:31;2.60;;;2.03;;
10333;SDS011;5212;47.892;16.406;2023-04-25T01:16:57;2.23;;;1.80;;
10333;SDS011;5212;47.892;16.406;2023-04-25T01:19:23;2.10;;;1.90;;
10333;SDS011;5212;47.892;16.406;2023-04-25T01:21:50;2.10;;;1.90;;
10333;SDS011;5212;47.892;16.406;2023-04-25T01:24:17;3.60;;;2.10;;
10333;SDS011;5212;47.892;16.406;2023-04-25T01:26:43;2.37;;;2.17;;
10333;SDS011;5212;47.892;16.406;2023-04-25T01:29:14;2.10;;;1.90;;
10333;SDS011;5212;47.892;16.406;2023-04-25T01:31:40;3.47;;;2.07;;
10333;SDS011;5212;47.892;16.406;2023-04-25T01:34:07;2.20;;;2.00;;
10333;SDS011;5212;47.892;16.406;2023-04-25T01:36:33;2.43;;;1.90;;
10333;SDS011;5212;47.892;16.406;2023-04-25T01:39:01;2.23;;;2.03;;
10333;SDS011;5212;47.892;16.406;2023-04-25T01:41:27;2.30;;;2.10;;
10333;SDS011;5212;47.892;16.406;2023-04-25T01:43:53;3.20;;;2.17;;
10333;SDS011;5212;47.892;16.406;2023-04-25T01:46:19;3.10;;;2.17;;
10333;SDS011;5212;47.892;16.406;2023-04-25T01:48:46;3.30;;;2.07;;
10333;SDS011;5212;47.892;16.406;2023-04-25T01:51:12;2.23;;;2.03;;
10333;SDS011;5212;47.892;16.406;2023-04-25T01:53:38;2.80;;;2.30;;
10333;SDS011;5212;47.892;16.406;2023-04-25T01:56:05;3.30;;;2.10;;
10333;SDS011;5212;47.892;16.406;2023-04-25T01:58:32;2.20;;;1.90;;
10333;SDS011;5212;47.892;16.406;2023-04-25T02:00:58;2.37;;;2.17;;
10333;SDS011;5212;47.892;16.406;2023-04-25T02:03:24;2.83;;;2.20;;
10333;SDS011;5212;47.892;16.406;2023-04-25T02:05:50;2.43;;;2.00;;
10333;SDS011;5212;47.892;16.406;2023-04-25T02:08:16;2.50;;;2.30;;
10333;SDS011;5212;47.892;16.406;2023-04-25T02:10:42;3.33;;;2.10;;
10333;SDS011;5212;47.892;16.406;2023-04-25T02:13:09;2.17;;;1.97;;
10333;SDS011;5212;47.892;16.406;2023-04-25T02:15:35;3.00;;;2.47;;
10333;SDS011;5212;47.892;16.406;2023-04-25T02:18:01;3.53;;;2.40;;
10333;SDS011;5212;47.892;16.406;2023-04-25T02:20:28;2.60;;;2.20;;
10333;SDS011;5212;47.892;16.406;2023-04-25T02:22:55;2.27;;;2.07;;
10333;SDS011;5212;47.892;16.406;2023-04-25T02:25:21;3.40;;;2.37;;
10333;SDS011;5212;47.892;16.406;2023-04-25T02:27:47;2.70;;;2.20;;
10333;SDS011;5212;47.892;16.406;2023-04-25T02:30:14;3.03;;;2.33;;
10333;SDS011;5212;47.892;16.406;2023-04-25T02:32:40;2.57;;;2.20;;
10333;SDS011;5212;47.892;16.406;2023-04-25T02:35:07;2.60;;;2.30;;
10333;SDS011;5212;47.892;16.406;2023-04-25T02:37:34;2.90;;;2.30;;
10333;SDS011;5212;47.892;16.406;2023-04-25T02:40:00;3.37;;;2.40;;
10333;SDS011;5212;47.892;16.406;2023-04-25T02:42:28;3.03;;;2.40;;
10333;SDS011;5212;47.892;16.406;2023-04-25T02:44:54;2.60;;;2.30;;
10333;SDS011;5212;47.892;16.406;2023-04-25T02:47:20;3.50;;;2.20;;
10333;SDS011;5212;47.892;16.406;2023-04-25T02:49:47;2.57;;;2.27;;
10333;SDS011;5212;47.892;16.406;2023-04-25T02:52:13;3.03;;;2.30;;
10333;SDS011;5212;47.892;16.406;2023-04-25T02:54:39;3.47;;;2.40;;
10333;SDS011;5212;47.892;16.406;2023-04-25T02:57:06;2.40;;;2.20;;
10333;SDS011;5212;47.892;16.406;2023-04-25T02:59:33;3.53;;;2.47;;
10333;SDS011;5212;47.892;16.406;2023-04-25T03:01:59;4.00;;;2.23;;
10333;SDS011;5212;47.892;16.406;2023-04-25T03:04:26;3.10;;;2.30;;
10333;SDS011;5212;47.892;16.406;2023-04-25T03:06:52;2.93;;;2.40;;
10333;SDS011;5212;47.892;16.406;2023-04-25T03:09:19;2.57;;;2.23;;
10333;SDS011;5212;47.892;16.406;2023-04-25T03:11:45;4.13;;;2.40;;
10333;SDS011;5212;47.892;16.406;2023-04-25T03:14:11;2.30;;;2.10;;
10333;SDS011;5212;47.892;16.406;2023-04-25T03:16:37;3.47;;;2.70;;
10333;SDS011;5212;47.892;16.406;2023-04-25T03:19:03;3.40;;;3.10;;
10333;SDS011;5212;47.892;16.406;2023-04-25T03:21:30;3.63;;;3.27;;
10333;SDS011;5212;47.892;16.406;2023-04-25T03:23:57;3.93;;;3.10;;
10333;SDS011;5212;47.892;16.406;2023-04-25T03:26:23;3.53;;;2.97;;
10333;SDS011;5212;47.892;16.406;2023-04-25T03:28:49;4.40;;;2.53;;
10333;SDS011;5212;47.892;16.406;2023-04-25T03:31:15;4.67;;;3.17;;
10333;SDS011;5212;47.892;16.406;2023-04-25T03:33:41;3.13;;;2.83;;
10333;SDS011;5212;47.892;16.406;2023-04-25T03:36:07;3.80;;;3.03;;
10333;SDS011;5212;47.892;16.406;2023-04-25T03:38:35;2.80;;;2.50;;
10333;SDS011;5212;47.892;16.406;2023-04-25T03:41:01;4.60;;;2.80;;
10333;SDS011;5212;47.892;16.406;2023-04-25T03:43:27;4.00;;;2.97;;
10333;SDS011;5212;47.892;16.406;2023-04-25T03:45:53;3.30;;;3.00;;
10333;SDS011;5212;47.892;16.406;2023-04-25T03:48:19;3.33;;;3.03;;
10333;SDS011;5212;47.892;16.406;2023-04-25T03:50:46;3.13;;;2.83;;
10333;SDS011;5212;47.892;16.406;2023-04-25T03:53:12;4.20;;;3.27;;
10333;SDS011;5212;47.892;16.406;2023-04-25T03:55:39;3.50;;;3.10;;
10333;SDS011;5212;47.892;16.406;2023-04-25T03:58:05;3.30;;;3.00;;
10333;SDS011;5212;47.892;16.406;2023-04-25T04:00:31;3.13;;;2.83;;
10333;SDS011;5212;47.892;16.406;2023-04-25T04:02:57;3.97;;;2.90;;
10333;SDS011;5212;47.892;16.406;2023-04-25T04:05:23;3.20;;;2.80;;
10333;SDS011;5212;47.892;16.406;2023-04-25T04:07:49;5.47;;;3.00;;
10333;SDS011;5212;47.892;16.406;2023-04-25T04:10:15;3.03;;;2.73;;
10333;SDS011;5212;47.892;16.406;2023-04-25T04:12:41;4.93;;;2.83;;
10333;SDS011;5212;47.892;16.406;2023-04-25T04:15:08;6.00;;;3.37;;
10333;SDS011;5212;47.892;16.406;2023-04-25T04:17:34;3.20;;;2.80;;
10333;SDS011;5212;47.892;16.406;2023-04-25T04:20:00;4.10;;;2.80;;
10333;SDS011;5212;47.892;16.406;2023-04-25T04:22:28;3.67;;;3.03;;
10333;SDS011;5212;47.892;16.406;2023-04-25T04:24:54;4.70;;;3.20;;
10333;SDS011;5212;47.892;16.406;2023-04-25T04:27:22;3.90;;;2.90;;
10333;SDS011;5212;47.892;16.406;2023-04-25T04:29:49;4.93;;;3.10;;
10333;SDS011;5212;47.892;16.406;2023-04-25T04:32:17;3.53;;;3.20;;
10333;SDS011;5212;47.892;16.406;2023-04-25T04:34:43;3.33;;;2.80;;
10333;SDS011;5212;47.892;16.406;2023-04-25T04:37:09;4.00;;;3.00;;
10333;SDS011;5212;47.892;16.406;2023-04-25T04:39:38;5.73;;;2.80;;
10333;SDS011;5212;47.892;16.406;2023-04-25T04:42:04;3.30;;;2.70;;
10333;SDS011;5212;47.892;16.406;2023-04-25T04:44:30;4.30;;;2.97;;
10333;SDS011;5212;47.892;16.406;2023-04-25T04:46:58;3.77;;;2.80;;
10333;SDS011;5212;47.892;16.406;2023-04-25T04:49:24;3.50;;;3.20;;
10333;SDS011;5212;47.892;16.406;2023-04-25T04:51:50;3.33;;;2.90;;
10333;SDS011;5212;47.892;16.406;2023-04-25T04:54:16;3.20;;;2.90;;
10333;SDS011;5212;47.892;16.406;2023-04-25T04:56:42;4.23;;;3.40;;
10333;SDS011;5212;47.892;16.406;2023-04-25T04:59:08;3.90;;;3.40;;
10333;SDS011;5212;47.892;16.406;2023-04-25T05:01:34;3.40;;;3.00;;
10333;SDS011;5212;47.892;16.406;2023-04-25T05:04:01;4.47;;;3.57;;
10333;SDS011;5212;47.892;16.406;2023-04-25T05:06:28;3.47;;;3.10;;
10333;SDS011;5212;47.892;16.406;2023-04-25T05:08:54;3.87;;;2.73;;
10333;SDS011;5212;47.892;16.406;2023-04-25T05:11:21;5.37;;;3.27;;
10333;SDS011;5212;47.892;16.406;2023-04-25T05:13:47;3.00;;;2.70;;
10333;SDS011;5212;47.892;16.406;2023-04-25T05:16:13;3.50;;;3.20;;
10333;SDS011;5212;47.892;16.406;2023-04-25T05:18:39;3.47;;;3.17;;
10333;SDS011;5212;47.892;16.406;2023-04-25T05:21:06;3.50;;;3.20;;
10333;SDS011;5212;47.892;16.406;2023-04-25T05:23:32;3.40;;;3.00;;
10333;SDS011;5212;47.892;16.406;2023-04-25T05:25:58;3.50;;;3.20;;
10333;SDS011;5212;47.892;16.406;2023-04-25T05:28:24;3.97;;;3.40;;
10333;SDS011;5212;47.892;16.406;2023-04-25T05:30:50;3.40;;;3.10;;
10333;SDS011;5212;47.892;16.406;2023-04-25T05:33:17;4.63;;;3.40;;
10333;SDS011;5212;47.892;16.406;2023-04-25T05:35:43;4.97;;;3.53;;
10333;SDS011;5212;47.892;16.406;2023-04-25T05:38:10;3.50;;;2.97;;
10333;SDS011;5212;47.892;16.406;2023-04-25T05:40:36;4.60;;;3.17;;
10333;SDS011;5212;47.892;16.406;2023-04-25T05:43:02;3.70;;;3.17;;
10333;SDS011;5212;47.892;16.406;2023-04-25T05:45:28;5.00;;;3.30;;
10333;SDS011;5212;47.892;16.406;2023-04-25T05:47:54;3.03;;;2.73;;
10333;SDS011;5212;47.892;16.406;2023-04-25T05:50:20;3.67;;;2.90;;
10333;SDS011;5212;47.892;16.406;2023-04-25T05:52:46;4.27;;;3.07;;
10333;SDS011;5212;47.892;16.406;2023-04-25T05:55:13;4.30;;;2.80;;
10333;SDS011;5212;47.892;16.406;2023-04-25T05:57:39;3.40;;;2.80;;
10333;SDS011;5212;47.892;16.406;2023-04-25T06:00:07;3.13;;;2.70;;
10333;SDS011;5212;47.892;16.406;2023-04-25T06:02:34;3.40;;;3.10;;
10333;SDS011;5212;47.892;16.406;2023-04-25T06:05:00;3.20;;;2.90;;
10333;SDS011;5212;47.892;16.406;2023-04-25T06:07:28;3.77;;;3.03;;
10333;SDS011;5212;47.892;16.406;2023-04-25T06:09:54;4.47;;;2.87;;
10333;SDS011;5212;47.892;16.406;2023-04-25T06:12:21;3.67;;;2.87;;
10333;SDS011;5212;47.892;16.406;2023-04-25T06:14:47;4.23;;;2.90;;
10333;SDS011;5212;47.892;16.406;2023-04-25T06:17:13;2.90;;;2.50;;
10333;SDS011;5212;47.892;16.406;2023-04-25T06:19:39;2.90;;;2.60;;
10333;SDS011;5212;47.892;16.406;2023-04-25T06:22:06;3.17;;;2.50;;
10333;SDS011;5212;47.892;16.406;2023-04-25T06:24:32;2.53;;;2.27;;
10333;SDS011;5212;47.892;16.406;2023-04-25T06:26:59;3.37;;;2.70;;
10333;SDS011;5212;47.892;16.406;2023-04-25T06:29:26;3.17;;;2.87;;
10333;SDS011;5212;47.892;16.406;2023-04-25T06:31:52;2.60;;;2.33;;
10333;SDS011;5212;47.892;16.406;2023-04-25T06:34:18;3.97;;;2.80;;
10333;SDS011;5212;47.892;16.406;2023-04-25T06:36:43;4.07;;;2.67;;
10333;SDS011;5212;47.892;16.406;2023-04-25T06:39:10;3.20;;;2.90;;
10333;SDS011;5212;47.892;16.406;2023-04-25T06:41:36;3.50;;;2.80;;
10333;SDS011;5212;47.892;16.406;2023-04-25T06:44:02;2.97;;;2.67;;
10333;SDS011;5212;47.892;16.406;2023-04-25T06:46:28;3.93;;;2.90;;
10333;SDS011;5212;47.892;16.406;2023-04-25T06:48:54;3.67;;;2.90;;
10333;SDS011;5212;47.892;16.406;2023-04-25T06:51:21;2.97;;;2.40;;
10333;SDS011;5212;47.892;16.406;2023-04-25T06:53:49;2.43;;;2.23;;
10333;SDS011;5212;47.892;16.406;2023-04-25T06:56:15;2.80;;;2.50;;
10333;SDS011;5212;47.892;16.406;2023-04-25T06:58:41;3.03;;;2.60;;
10333;SDS011;5212;47.892;16.406;2023-04-25T07:01:07;3.20;;;2.30;;
10333;SDS011;5212;47.892;16.406;2023-04-25T07:03:34;3.87;;;2.77;;
10333;SDS011;5212;47.892;16.406;2023-04-25T07:06:00;3.07;;;2.70;;
10333;SDS011;5212;47.892;16.406;2023-04-25T07:08:26;2.80;;;2.50;;
10333;SDS011;5212;47.892;16.406;2023-04-25T07:10:52;4.07;;;3.00;;
10333;SDS011;5212;47.892;16.406;2023-04-25T07:13:18;3.00;;;2.60;;
10333;SDS011;5212;47.892;16.406;2023-04-25T07:15:44;2.77;;;2.50;;
10333;SDS011;5212;47.892;16.406;2023-04-25T07:18:10;4.67;;;2.60;;
10333;SDS011;5212;47.892;16.406;2023-04-25T07:20:37;3.00;;;2.40;;
10333;SDS011;5212;47.892;16.406;2023-04-25T07:23:03;2.60;;;2.40;;
10333;SDS011;5212;47.892;16.406;2023-04-25T07:25:29;2.87;;;2.57;;
10333;SDS011;5212;47.892;16.406;2023-04-25T07:27:55;3.17;;;2.70;;
10333;SDS011;5212;47.892;16.406;2023-04-25T07:30:21;2.60;;;2.40;;
10333;SDS011;5212;47.892;16.406;2023-04-25T07:32:47;3.10;;;2.43;;
10333;SDS011;5212;47.892;16.406;2023-04-25T07:35:13;2.33;;;2.07;;
10333;SDS011;5212;47.892;16.406;2023-04-25T07:37:41;3.87;;;2.40;;
10333;SDS011;5212;47.892;16.406;2023-04-25T07:40:07;2.50;;;2.30;;
10333;SDS011;5212;47.892;16.406;2023-04-25T07:42:34;2.77;;;2.40;;
10333;SDS011;5212;47.892;16.406;2023-04-25T07:45:01;3.83;;;2.60;;
10333;SDS011;5212;47.892;16.406;2023-04-25T07:47:27;3.07;;;2.53;;
10333;SDS011;5212;47.892;16.406;2023-04-25T07:49:53;4.30;;;2.80;;
10333;SDS011;5212;47.892;16.406;2023-04-25T07:52:19;3.23;;;2.40;;
10333;SDS011;5212;47.892;16.406;2023-04-25T07:54:47;3.90;;;2.20;;
10333;SDS011;5212;47.892;16.406;2023-04-25T07:57:13;2.53;;;2.00;;
10333;SDS011;5212;47.892;16.406;2023-04-25T07:59:39;2.50;;;2.30;;
10333;SDS011;5212;47.892;16.406;2023-04-25T08:02:05;2.40;;;2.20;;
10333;SDS011;5212;47.892;16.406;2023-04-25T08:04:31;2.20;;;2.00;;
10333;SDS011;5212;47.892;16.406;2023-04-25T08:06:57;3.73;;;2.20;;
10333;SDS011;5212;47.892;16.406;2023-04-25T08:09:23;3.17;;;2.27;;
10333;SDS011;5212;47.892;16.406;2023-04-25T08:11:50;2.47;;;2.13;;
10333;SDS011;5212;47.892;16.406;2023-04-25T08:14:16;2.67;;;2.20;;
10333;SDS011;5212;47.892;16.406;2023-04-25T08:16:42;2.23;;;2.03;;
10333;SDS011;5212;47.892;16.406;2023-04-25T08:19:08;2.73;;;2.40;;
10333;SDS011;5212;47.892;16.406;2023-04-25T08:21:35;3.20;;;2.20;;
10333;SDS011;5212;47.892;16.406;2023-04-25T08:24:01;2.73;;;2.10;;
10333;SDS011;5212;47.892;16.406;2023-04-25T08:26:27;4.70;;;2.13;;
10333;SDS011;5212;47.892;16.406;2023-04-25T08:28:54;2.77;;;2.10;;
10333;SDS011;5212;47.892;16.406;2023-04-25T08:31:20;2.37;;;2.17;;
10333;SDS011;5212;47.892;16.406;2023-04-25T08:33:46;2.90;;;2.27;;
10333;SDS011;5212;47.892;16.406;2023-04-25T08:36:12;2.50;;;1.87;;
10333;SDS011;5212;47.892;16.406;2023-04-25T08:38:38;2.13;;;1.93;;
10333;SDS011;5212;47.892;16.406;2023-04-25T08:41:04;2.40;;;2.07;;
10333;SDS011;5212;47.892;16.406;2023-04-25T08:43:31;2.40;;;2.20;;
10333;SDS011;5212;47.892;16.406;2023-04-25T08:45:58;2.50;;;2.30;;
10333;SDS011;5212;47.892;16.406;2023-04-25T08:48:26;4.10;;;2.20;;
10333;SDS011;5212;47.892;16.406;2023-04-25T08:50:53;3.83;;;2.10;;
10333;SDS011;5212;47.892;16.406;2023-04-25T08:53:21;3.23;;;2.17;;
10333;SDS011;5212;47.892;16.406;2023-04-25T08:55:48;2.27;;;2.03;;
10333;SDS011;5212;47.892;16.406;2023-04-25T08:58:14;2.13;;;1.80;;
10333;SDS011;5212;47.892;16.406;2023-04-25T09:00:40;2.13;;;1.93;;
10333;SDS011;5212;47.892;16.406;2023-04-25T09:03:07;2.57;;;1.93;;
10333;SDS011;5212;47.892;16.406;2023-04-25T09:05:33;2.00;;;1.80;;
10333;SDS011;5212;47.892;16.406;2023-04-25T09:08:00;4.33;;;1.90;;
10333;SDS011;5212;47.892;16.406;2023-04-25T09:10:26;2.10;;;1.90;;
10333;SDS011;5212;47.892;16.406;2023-04-25T09:13:02;2.53;;;1.97;;
10333;SDS011;5212;47.892;16.406;2023-04-25T09:15:30;1.90;;;1.70;;
10333;SDS011;5212;47.892;16.406;2023-04-25T09:17:57;2.50;;;1.77;;
10333;SDS011;5212;47.892;16.406;2023-04-25T09:20:24;2.13;;;1.77;;
10333;SDS011;5212;47.892;16.406;2023-04-25T09:23:00;2.87;;;1.83;;
10333;SDS011;5212;47.892;16.406;2023-04-25T09:25:26;2.00;;;1.80;;
10333;SDS011;5212;47.892;16.406;2023-04-25T09:27:53;2.10;;;1.70;;
10333;SDS011;5212;47.892;16.406;2023-04-25T09:30:27;2.20;;;1.87;;
10333;SDS011;5212;47.892;16.406;2023-04-25T09:32:56;4.27;;;1.87;;
10333;SDS011;5212;47.892;16.406;2023-04-25T09:35:26;1.97;;;1.60;;
10333;SDS011;5212;47.892;16.406;2023-04-25T09:37:52;4.80;;;1.80;;
10333;SDS011;5212;47.892;16.406;2023-04-25T09:40:18;1.93;;;1.63;;
10333;SDS011;5212;47.892;16.406;2023-04-25T09:42:44;3.33;;;1.67;;
10333;SDS011;5212;47.892;16.406;2023-04-25T09:45:12;1.70;;;1.40;;
10333;SDS011;5212;47.892;16.406;2023-04-25T09:47:38;2.00;;;1.57;;
10333;SDS011;5212;47.892;16.406;2023-04-25T09:50:05;1.73;;;1.60;;
10333;SDS011;5212;47.892;16.406;2023-04-25T09:52:40;4.10;;;1.67;;
10333;SDS011;5212;47.892;16.406;2023-04-25T09:55:06;1.80;;;1.40;;
10333;SDS011;5212;47.892;16.406;2023-04-25T09:57:33;2.03;;;1.40;;
10333;SDS011;5212;47.892;16.406;2023-04-25T10:00:00;1.60;;;1.50;;
10333;SDS011;5212;47.892;16.406;2023-04-25T10:02:28;3.43;;;1.40;;
10333;SDS011;5212;47.892;16.406;2023-04-25T10:04:55;2.20;;;1.90;;
10333;SDS011;5212;47.892;16.406;2023-04-25T10:07:22;1.90;;;1.60;;
10333;SDS011;5212;47.892;16.406;2023-04-25T10:09:53;2.23;;;1.70;;
10333;SDS011;5212;47.892;16.406;2023-04-25T10:12:21;1.93;;;1.83;;
10333;SDS011;5212;47.892;16.406;2023-04-25T10:14:47;1.60;;;1.47;;
10333;SDS011;5212;47.892;16.406;2023-04-25T10:17:13;2.37;;;1.40;;
10333;SDS011;5212;47.892;16.406;2023-04-25T10:19:39;2.43;;;1.50;;
10333;SDS011;5212;47.892;16.406;2023-04-25T10:22:07;2.03;;;1.43;;
10333;SDS011;5212;47.892;16.406;2023-04-25T10:24:34;2.67;;;1.43;;
10333;SDS011;5212;47.892;16.406;2023-04-25T10:27:02;1.37;;;1.27;;
10333;SDS011;5212;47.892;16.406;2023-04-25T10:29:28;1.83;;;1.60;;
10333;SDS011;5212;47.892;16.406;2023-04-25T10:31:54;1.70;;;1.50;;
10333;SDS011;5212;47.892;16.406;2023-04-25T10:34:23;2.33;;;1.80;;
10333;SDS011;5212;47.892;16.406;2023-04-25T10:36:50;2.73;;;2.00;;
10333;SDS011;5212;47.892;16.406;2023-04-25T10:39:21;2.10;;;1.90;;
10333;SDS011;5212;47.892;16.406;2023-04-25T10:41:52;2.30;;;2.10;;
10333;SDS011;5212;47.892;16.406;2023-04-25T10:44:19;3.07;;;2.30;;
10333;SDS011;5212;47.892;16.406;2023-04-25T10:46:45;2.47;;;2.27;;
10333;SDS011;5212;47.892;16.406;2023-04-25T10:49:11;2.50;;;2.10;;
10333;SDS011;5212;47.892;16.406;2023-04-25T10:52:05;2.77;;;2.10;;
10333;SDS011;5212;47.892;16.406;2023-04-25T10:54:39;5.77;;;4.87;;
10333;SDS011;5212;47.892;16.406;2023-04-25T10:57:06;2.37;;;2.10;;
10333;SDS011;5212;47.892;16.406;2023-04-25T10:59:32;2.57;;;1.90;;
10333;SDS011;5212;47.892;16.406;2023-04-25T11:01:58;2.50;;;2.00;;
10333;SDS011;5212;47.892;16.406;2023-04-25T11:04:25;2.43;;;2.13;;
10333;SDS011;5212;47.892;16.406;2023-04-25T11:06:58;3.67;;;2.20;;
10333;SDS011;5212;47.892;16.406;2023-04-25T11:09:28;2.53;;;2.20;;
10333;SDS011;5212;47.892;16.406;2023-04-25T11:11:55;1.97;;;1.60;;
10333;SDS011;5212;47.892;16.406;2023-04-25T11:14:21;2.03;;;1.83;;
10333;SDS011;5212;47.892;16.406;2023-04-25T11:16:48;2.97;;;2.10;;
10333;SDS011;5212;47.892;16.406;2023-04-25T11:19:19;1.93;;;1.73;;
10333;SDS011;5212;47.892;16.406;2023-04-25T11:21:45;2.00;;;1.80;;
10333;SDS011;5212;47.892;16.406;2023-04-25T11:24:11;1.70;;;1.50;;
10333;SDS011;5212;47.892;16.406;2023-04-25T11:26:37;2.60;;;1.43;;
10333;SDS011;5212;47.892;16.406;2023-04-25T11:29:03;1.57;;;1.40;;
10333;SDS011;5212;47.892;16.406;2023-04-25T11:31:29;1.57;;;1.47;;
10333;SDS011;5212;47.892;16.406;2023-04-25T11:33:57;1.60;;;1.50;;
10333;SDS011;5212;47.892;16.406;2023-04-25T11:36:23;1.63;;;1.20;;
10333;SDS011;5212;47.892;16.406;2023-04-25T11:38:49;1.37;;;1.27;;
10333;SDS011;5212;47.892;16.406;2023-04-25T11:41:16;2.00;;;1.73;;
10333;SDS011;5212;47.892;16.406;2023-04-25T11:43:42;5.43;;;2.00;;
10333;SDS011;5212;47.892;16.406;2023-04-25T11:46:09;1.83;;;1.67;;
10333;SDS011;5212;47.892;16.406;2023-04-25T11:48:38;1.70;;;1.60;;
10333;SDS011;5212;47.892;16.406;2023-04-25T11:51:05;1.70;;;1.47;;
10333;SDS011;5212;47.892;16.406;2023-04-25T11:53:31;1.60;;;1.50;;
10333;SDS011;5212;47.892;16.406;2023-04-25T11:55:57;1.70;;;1.47;;
10333;SDS011;5212;47.892;16.406;2023-04-25T11:58:23;1.87;;;1.50;;
10333;SDS011;5212;47.892;16.406;2023-04-25T12:00:49;2.33;;;1.57;;
10333;SDS011;5212;47.892;16.406;2023-04-25T12:03:15;2.20;;;1.47;;
10333;SDS011;5212;47.892;16.406;2023-04-25T12:05:43;1.73;;;1.60;;
10333;SDS011;5212;47.892;16.406;2023-04-25T12:08:11;2.47;;;2.00;;
10333;SDS011;5212;47.892;16.406;2023-04-25T12:10:38;3.20;;;2.60;;
10333;SDS011;5212;47.892;16.406;2023-04-25T12:13:17;2.93;;;2.40;;
10333;SDS011;5212;47.892;16.406;2023-04-25T12:15:44;3.23;;;2.40;;
10333;SDS011;5212;47.892;16.406;2023-04-25T12:18:10;2.87;;;2.03;;
10333;SDS011;5212;47.892;16.406;2023-04-25T12:20:36;2.20;;;2.00;;
10333;SDS011;5212;47.892;16.406;2023-04-25T12:23:05;2.50;;;2.20;;
10333;SDS011;5212;47.892;16.406;2023-04-25T12:25:37;2.30;;;2.00;;
10333;SDS011;5212;47.892;16.406;2023-04-25T12:28:10;2.13;;;1.30;;
10333;SDS011;5212;47.892;16.406;2023-04-25T12:30:51;3.30;;;1.27;;
10333;SDS011;5212;47.892;16.406;2023-04-25T12:33:18;1.40;;;1.20;;
10333;SDS011;5212;47.892;16.406;2023-04-25T12:35:44;1.40;;;1.20;;
10333;SDS011;5212;47.892;16.406;2023-04-25T12:38:10;4.27;;;1.60;;
10333;SDS011;5212;47.892;16.406;2023-04-25T12:40:37;2.07;;;1.30;;
10333;SDS011;5212;47.892;16.406;2023-04-25T12:43:03;1.73;;;1.20;;
10333;SDS011;5212;47.892;16.406;2023-04-25T12:45:29;4.67;;;1.50;;
10333;SDS011;5212;47.892;16.406;2023-04-25T12:47:55;1.83;;;1.20;;
10333;SDS011;5212;47.892;16.406;2023-04-25T12:50:21;1.93;;;1.20;;
10333;SDS011;5212;47.892;16.406;2023-04-25T12:52:47;1.50;;;1.20;;
10333;SDS011;5212;47.892;16.406;2023-04-25T12:55:13;1.43;;;1.33;;
10333;SDS011;5212;47.892;16.406;2023-04-25T12:57:39;1.60;;;1.40;;
10333;SDS011;5212;47.892;16.406;2023-04-25T13:00:06;1.83;;;1.40;;
10333;SDS011;5212;47.892;16.406;2023-04-25T13:02:39;1.90;;;1.30;;
10333;SDS011;5212;47.892;16.406;2023-04-25T13:05:06;1.83;;;1.40;;
10333;SDS011;5212;47.892;16.406;2023-04-25T13:07:32;1.30;;;1.20;;
10333;SDS011;5212;47.892;16.406;2023-04-25T13:09:58;2.23;;;1.50;;
10333;SDS011;5212;47.892;16.406;2023-04-25T13:12:25;2.30;;;1.60;;
10333;SDS011;5212;47.892;16.406;2023-04-25T13:14:52;2.40;;;1.57;;
10333;SDS011;5212;47.892;16.406;2023-04-25T13:17:18;2.23;;;1.40;;
10333;SDS011;5212;47.892;16.406;2023-04-25T13:19:44;2.50;;;1.43;;
10333;SDS011;5212;47.892;16.406;2023-04-25T13:22:10;1.47;;;1.27;;
10333;SDS011;5212;47.892;16.406;2023-04-25T13:24:36;2.30;;;1.37;;
10333;SDS011;5212;47.892;16.406;2023-04-25T13:27:02;2.10;;;1.43;;
10333;SDS011;5212;47.892;16.406;2023-04-25T13:29:28;1.17;;;1.07;;
10333;SDS011;5212;47.892;16.406;2023-04-25T13:31:55;2.70;;;1.20;;
10333;SDS011;5212;47.892;16.406;2023-04-25T13:34:21;1.43;;;0.93;;
10333;SDS011;5212;47.892;16.406;2023-04-25T13:36:47;1.40;;;1.00;;
10333;SDS011;5212;47.892;16.406;2023-04-25T13:39:13;1.20;;;1.10;;
10333;SDS011;5212;47.892;16.406;2023-04-25T13:41:39;1.40;;;1.10;;
10333;SDS011;5212;47.892;16.406;2023-04-25T13:44:05;1.87;;;1.13;;
10333;SDS011;5212;47.892;16.406;2023-04-25T13:46:31;2.97;;;1.10;;
10333;SDS011;5212;47.892;16.406;2023-04-25T13:48:58;1.13;;;1.03;;
10333;SDS011;5212;47.892;16.406;2023-04-25T13:51:24;1.77;;;1.10;;
10333;SDS011;5212;47.892;16.406;2023-04-25T13:53:51;1.23;;;1.00;;
10333;SDS011;5212;47.892;16.406;2023-04-25T13:56:17;1.57;;;1.00;;
10333;SDS011;5212;47.892;16.406;2023-04-25T13:58:44;1.20;;;1.00;;
10333;SDS011;5212;47.892;16.406;2023-04-25T14:01:10;1.80;;;1.30;;
10333;SDS011;5212;47.892;16.406;2023-04-25T14:03:36;2.23;;;1.40;;
10333;SDS011;5212;47.892;16.406;2023-04-25T14:06:03;3.30;;;1.60;;
10333;SDS011;5212;47.892;16.406;2023-04-25T14:08:29;3.03;;;1.30;;
10333;SDS011;5212;47.892;16.406;2023-04-25T14:10:55;1.90;;;1.37;;
10333;SDS011;5212;47.892;16.406;2023-04-25T14:13:21;2.43;;;1.30;;
10333;SDS011;5212;47.892;16.406;2023-04-25T14:15:48;2.33;;;1.10;;
10333;SDS011;5212;47.892;16.406;2023-04-25T14:18:15;1.27;;;1.10;;
10333;SDS011;5212;47.892;16.406;2023-04-25T14:20:41;1.10;;;0.97;;
10333;SDS011;5212;47.892;16.406;2023-04-25T14:23:08;5.00;;;1.20;;
10333;SDS011;5212;47.892;16.406;2023-04-25T14:25:34;1.70;;;1.30;;
10333;SDS011;5212;47.892;16.406;2023-04-25T14:28:01;2.87;;;1.30;;
10333;SDS011;5212;47.892;16.406;2023-04-25T14:30:27;1.30;;;1.10;;
10333;SDS011;5212;47.892;16.406;2023-04-25T14:32:53;2.20;;;1.70;;
10333;SDS011;5212;47.892;16.406;2023-04-25T14:35:19;1.77;;;1.50;;
10333;SDS011;5212;47.892;16.406;2023-04-25T14:37:45;1.27;;;1.17;;
10333;SDS011;5212;47.892;16.406;2023-04-25T14:40:12;1.60;;;1.23;;
10333;SDS011;5212;47.892;16.406;2023-04-25T14:42:40;2.07;;;1.10;;
10333;SDS011;5212;47.892;16.406;2023-04-25T14:45:06;1.17;;;1.07;;